createdAt,value
2022-09-26T00:00:18.169Z,7.53
2022-09-26T00:01:18.229Z,7.53
2022-09-26T00:02:18.224Z,7.52
2022-09-26T00:03:18.147Z,7.50
2022-09-26T00:04:21.187Z,7.50
2022-09-26T00:05:18.118Z,7.49
2022-09-26T00:06:18.137Z,7.50
2022-09-26T00:07:18.114Z,7.50
2022-09-26T00:08:18.086Z,7.50
2022-09-26T00:09:18.085Z,7.52
2022-09-26T00:10:18.091Z,7.52
2022-09-26T00:11:18.070Z,7.52
2022-09-26T00:12:18.061Z,7.52
2022-09-26T00:13:18.041Z,7.52
2022-09-26T00:14:18.025Z,7.53
2022-09-26T00:15:18.023Z,7.53
2022-09-26T00:16:18.103Z,7.52
2022-09-26T00:17:18.012Z,7.55
2022-09-26T00:18:17.983Z,7.53
2022-09-26T00:19:17.977Z,7.53
2022-09-26T00:20:17.964Z,7.53
2022-09-26T00:21:17.960Z,7.52
2022-09-26T00:22:18.017Z,7.50
2022-09-26T00:23:17.936Z,7.53
2022-09-26T00:24:17.923Z,7.50
2022-09-26T00:25:17.920Z,7.50
2022-09-26T00:26:17.902Z,7.49
2022-09-26T00:27:17.895Z,7.49
2022-09-26T00:28:17.896Z,7.46
2022-09-26T00:29:17.882Z,7.45
2022-09-26T00:30:17.869Z,7.45
2022-09-26T00:31:17.896Z,7.45
2022-09-26T00:32:17.842Z,7.43
2022-09-26T00:33:17.849Z,7.39
2022-09-26T00:34:17.823Z,7.35
2022-09-26T00:35:17.906Z,7.34
2022-09-26T00:36:17.799Z,7.35
2022-09-26T00:37:17.797Z,7.32
2022-09-26T00:38:17.814Z,7.32
2022-09-26T00:39:17.775Z,7.32
2022-09-26T00:40:17.891Z,7.31
2022-09-26T00:41:17.747Z,7.31
2022-09-26T00:42:17.738Z,7.28
2022-09-26T00:43:17.749Z,7.25
2022-09-26T00:44:17.718Z,7.25
2022-09-26T00:45:17.709Z,7.23
2022-09-26T00:46:17.766Z,7.21
2022-09-26T00:47:17.695Z,7.21
2022-09-26T00:48:17.692Z,7.20
2022-09-26T00:49:17.673Z,7.16
2022-09-26T00:50:18.208Z,7.15
2022-09-26T00:51:17.656Z,7.15
2022-09-26T00:52:17.636Z,7.13
2022-09-26T00:53:17.642Z,7.15
2022-09-26T00:54:18.233Z,7.12
2022-09-26T00:55:17.714Z,7.12
2022-09-26T00:56:17.595Z,7.10
2022-09-26T00:57:17.586Z,7.06
2022-09-26T00:58:17.592Z,7.06
2022-09-26T00:59:17.565Z,7.05
2022-09-26T01:00:17.564Z,7.06
2022-09-26T01:01:17.650Z,7.06
2022-09-26T01:02:17.710Z,7.06
2022-09-26T01:03:17.539Z,7.07
2022-09-26T01:04:17.513Z,7.13
2022-09-26T01:05:17.503Z,7.16
2022-09-26T01:06:17.491Z,7.17
2022-09-26T01:07:17.489Z,7.20
2022-09-26T01:08:17.486Z,7.23
2022-09-26T01:09:17.464Z,7.24
2022-09-26T01:10:17.474Z,7.25
2022-09-26T01:11:17.537Z,7.28
2022-09-26T01:12:17.435Z,7.30
2022-09-26T01:13:17.440Z,7.28
2022-09-26T01:14:17.411Z,7.30
2022-09-26T01:15:17.549Z,7.30
2022-09-26T01:16:17.440Z,7.30
2022-09-26T01:17:17.383Z,7.32
2022-09-26T01:18:17.382Z,7.32
2022-09-26T01:19:17.370Z,7.35
2022-09-26T01:20:17.402Z,7.35
2022-09-26T01:21:17.342Z,7.35
2022-09-26T01:22:17.348Z,7.37
2022-09-26T01:23:17.322Z,7.35
2022-09-26T01:24:17.308Z,7.40
2022-09-26T01:25:17.300Z,7.39
2022-09-26T01:26:17.310Z,7.39
2022-09-26T01:27:17.301Z,7.39
2022-09-26T01:28:17.267Z,7.39
2022-09-26T01:29:17.260Z,7.37
2022-09-26T01:30:17.249Z,7.39
2022-09-26T01:31:17.310Z,7.40
2022-09-26T01:32:17.226Z,7.43
2022-09-26T01:33:17.235Z,7.43
2022-09-26T01:34:17.215Z,7.45
2022-09-26T01:35:17.722Z,7.48
2022-09-26T01:36:17.722Z,7.49
2022-09-26T01:37:17.175Z,7.49
2022-09-26T01:38:17.182Z,7.50
2022-09-26T01:39:17.155Z,7.50
2022-09-26T01:40:17.210Z,7.52
2022-09-26T01:41:17.132Z,7.52
2022-09-26T01:42:17.145Z,7.53
2022-09-26T01:43:17.129Z,7.53
2022-09-26T01:44:17.109Z,7.53
2022-09-26T01:45:17.105Z,7.53
2022-09-26T01:46:17.159Z,7.52
2022-09-26T01:47:17.074Z,7.53
2022-09-26T01:48:17.074Z,7.55
2022-09-26T01:49:17.072Z,7.57
2022-09-26T01:50:17.043Z,7.55
2022-09-26T01:51:17.033Z,7.57
2022-09-26T01:52:17.019Z,7.58
2022-09-26T01:53:17.030Z,7.60
2022-09-26T01:54:17.127Z,7.58
2022-09-26T01:55:16.993Z,7.57
2022-09-26T01:56:16.982Z,7.57
2022-09-26T01:57:16.971Z,7.57
2022-09-26T01:58:17.000Z,7.57
2022-09-26T01:59:16.951Z,7.57
2022-09-26T02:00:16.939Z,7.57
2022-09-26T02:01:17.003Z,7.58
2022-09-26T02:02:16.954Z,7.63
2022-09-26T02:03:16.930Z,7.63
2022-09-26T02:04:16.900Z,7.63
2022-09-26T02:05:16.890Z,7.63
2022-09-26T02:06:16.875Z,7.64
2022-09-26T02:07:16.878Z,7.67
2022-09-26T02:08:16.877Z,7.64
2022-09-26T02:09:16.851Z,7.67
2022-09-26T02:10:16.840Z,7.67
2022-09-26T02:11:16.826Z,7.68
2022-09-26T02:12:16.814Z,7.68
2022-09-26T02:13:16.822Z,7.69
2022-09-26T02:14:16.817Z,7.71
2022-09-26T02:15:16.787Z,7.72
2022-09-26T02:16:16.800Z,7.72
2022-09-26T02:17:16.767Z,7.71
2022-09-26T02:18:16.797Z,7.71
2022-09-26T02:19:16.745Z,7.71
2022-09-26T02:20:16.737Z,7.71
2022-09-26T02:21:16.736Z,7.74
2022-09-26T02:22:16.718Z,7.74
2022-09-26T02:23:16.722Z,7.74
2022-09-26T02:24:16.691Z,7.77
2022-09-26T02:25:16.730Z,7.77
2022-09-26T02:26:16.671Z,7.77
2022-09-26T02:27:16.663Z,7.77
2022-09-26T02:28:16.676Z,7.75
2022-09-26T02:29:16.650Z,7.79
2022-09-26T02:30:16.656Z,7.80
2022-09-26T02:31:16.621Z,7.80
2022-09-26T02:32:16.683Z,7.79
2022-09-26T02:33:16.621Z,7.80
2022-09-26T02:34:16.589Z,7.80
2022-09-26T02:35:16.706Z,7.80
2022-09-26T02:36:16.570Z,7.82
2022-09-26T02:37:16.562Z,7.82
2022-09-26T02:38:16.569Z,7.85
2022-09-26T02:39:16.544Z,7.85
2022-09-26T02:40:16.596Z,7.86
2022-09-26T02:41:16.528Z,7.87
2022-09-26T02:42:16.505Z,7.87
2022-09-26T02:43:16.513Z,7.89
2022-09-26T02:44:16.489Z,7.89
2022-09-26T02:45:16.482Z,7.89
2022-09-26T02:46:16.676Z,7.89
2022-09-26T02:47:16.459Z,7.90
2022-09-26T02:48:16.497Z,7.92
2022-09-26T02:49:16.439Z,7.92
2022-09-26T02:50:16.450Z,7.92
2022-09-26T02:51:16.445Z,7.93
2022-09-26T02:52:16.431Z,7.93
2022-09-26T02:53:16.429Z,7.97
2022-09-26T02:54:16.405Z,7.93
2022-09-26T02:55:16.388Z,7.98
2022-09-26T02:56:16.368Z,7.98
2022-09-26T02:57:16.357Z,7.98
2022-09-26T02:58:16.360Z,7.98
2022-09-26T02:59:16.354Z,7.98
2022-09-26T03:00:16.330Z,8.00
2022-09-26T03:01:16.410Z,8.01
2022-09-26T03:02:16.325Z,8.00
2022-09-26T03:03:16.319Z,8.00
2022-09-26T03:04:16.520Z,8.01
2022-09-26T03:05:16.273Z,8.01
2022-09-26T03:06:16.261Z,8.02
2022-09-26T03:07:16.253Z,8.04
2022-09-26T03:08:16.243Z,8.04
2022-09-26T03:09:16.257Z,8.02
2022-09-26T03:10:16.221Z,8.02
2022-09-26T03:11:16.213Z,8.04
2022-09-26T03:12:16.200Z,8.04
2022-09-26T03:13:16.193Z,8.05
2022-09-26T03:14:16.194Z,8.05
2022-09-26T03:15:16.171Z,8.05
2022-09-26T03:16:16.357Z,8.05
2022-09-26T03:17:16.156Z,8.05
2022-09-26T03:18:16.243Z,8.04
2022-09-26T03:19:16.143Z,8.04
2022-09-26T03:20:16.121Z,8.04
2022-09-26T03:21:16.111Z,8.05
2022-09-26T03:22:16.104Z,8.07
2022-09-26T03:23:16.097Z,8.10
2022-09-26T03:24:16.092Z,8.11
2022-09-26T03:25:16.068Z,8.12
2022-09-26T03:26:16.062Z,8.12
2022-09-26T03:27:16.054Z,8.15
2022-09-26T03:28:16.036Z,8.16
2022-09-26T03:29:16.047Z,8.18
2022-09-26T03:30:16.019Z,8.19
2022-09-26T03:31:16.102Z,8.19
2022-09-26T03:32:16.110Z,8.22
2022-09-26T03:33:15.991Z,8.22
2022-09-26T03:34:16.015Z,8.23
2022-09-26T03:35:15.973Z,8.26
2022-09-26T03:36:15.962Z,8.29
2022-09-26T03:37:15.949Z,8.29
2022-09-26T03:38:15.941Z,8.28
2022-09-26T03:39:16.279Z,8.29
2022-09-26T03:40:15.980Z,8.29
2022-09-26T03:41:15.906Z,8.28
2022-09-26T03:42:15.894Z,8.28
2022-09-26T03:43:15.887Z,8.28
2022-09-26T03:44:15.891Z,8.29
2022-09-26T03:45:15.865Z,8.29
2022-09-26T03:46:16.107Z,8.29
2022-09-26T03:47:15.851Z,8.29
2022-09-26T03:48:15.836Z,8.29
2022-09-26T03:49:15.867Z,8.29
2022-09-26T03:50:16.076Z,8.29
2022-09-26T03:51:15.803Z,8.29
2022-09-26T03:52:15.813Z,8.29
2022-09-26T03:53:15.787Z,8.30
2022-09-26T03:54:15.790Z,8.34
2022-09-26T03:55:15.761Z,8.34
2022-09-26T03:56:15.760Z,8.36
2022-09-26T03:57:15.741Z,8.34
2022-09-26T03:58:15.732Z,8.34
2022-09-26T03:59:15.822Z,8.33
2022-09-26T04:00:15.774Z,8.34
2022-09-26T04:01:15.842Z,8.33
2022-09-26T04:02:15.781Z,8.34
2022-09-26T04:03:15.682Z,8.30
2022-09-26T04:04:15.691Z,8.33
2022-09-26T04:05:15.664Z,8.30
2022-09-26T04:06:15.687Z,8.33
2022-09-26T04:07:15.640Z,8.33
2022-09-26T04:08:15.635Z,8.33
2022-09-26T04:09:17.146Z,8.33
2022-09-26T04:10:15.611Z,8.29
2022-09-26T04:11:15.604Z,8.28
2022-09-26T04:12:15.591Z,8.28
2022-09-26T04:13:39.760Z,8.28
2022-09-26T04:14:16.591Z,8.28
2022-09-26T04:15:15.561Z,8.28
2022-09-26T04:16:15.632Z,8.28
2022-09-26T04:17:15.537Z,8.26
2022-09-26T04:18:15.533Z,8.26
2022-09-26T04:19:15.748Z,8.25
2022-09-26T04:20:15.529Z,8.25
2022-09-26T04:21:15.505Z,8.25
2022-09-26T04:22:15.513Z,8.25
2022-09-26T04:23:15.477Z,8.23
2022-09-26T04:24:15.484Z,8.25
2022-09-26T04:25:15.458Z,8.22
2022-09-26T04:26:20.112Z,8.25
2022-09-26T04:27:16.440Z,8.25
2022-09-26T04:28:15.436Z,8.25
2022-09-26T04:29:15.716Z,8.25
2022-09-26T04:30:15.410Z,8.25
2022-09-26T04:31:15.495Z,8.25
2022-09-26T04:32:15.386Z,8.25
2022-09-26T04:33:15.383Z,8.25
2022-09-26T04:34:15.389Z,8.22
2022-09-26T04:35:15.360Z,8.20
2022-09-26T04:36:15.351Z,8.22
2022-09-26T04:37:15.335Z,8.22
2022-09-26T04:38:15.540Z,8.22
2022-09-26T04:39:15.525Z,8.22
2022-09-26T04:40:15.395Z,8.22
2022-09-26T04:41:15.295Z,8.20
2022-09-26T04:42:15.287Z,8.16
2022-09-26T04:43:15.278Z,8.16
2022-09-26T04:44:15.269Z,8.15
2022-09-26T04:45:15.265Z,8.12
2022-09-26T04:46:20.041Z,8.11
2022-09-26T04:47:16.233Z,8.11
2022-09-26T04:48:15.228Z,8.10
2022-09-26T04:49:15.434Z,8.11
2022-09-26T04:50:15.357Z,8.12
2022-09-26T04:51:15.194Z,8.12
2022-09-26T04:52:15.199Z,8.15
2022-09-26T04:53:15.176Z,8.18
2022-09-26T04:54:15.190Z,8.18
2022-09-26T04:55:15.273Z,8.18
2022-09-26T04:56:15.147Z,8.19
2022-09-26T04:57:19.565Z,8.20
2022-09-26T04:58:15.125Z,8.22
2022-09-26T04:59:15.229Z,8.23
2022-09-26T05:00:15.122Z,8.23
2022-09-26T05:01:15.151Z,8.23
2022-09-26T05:02:15.121Z,8.26
2022-09-26T05:03:15.072Z,8.28
2022-09-26T05:04:15.068Z,8.29
2022-09-26T05:05:15.065Z,8.29
2022-09-26T05:06:15.051Z,8.28
2022-09-26T05:07:15.029Z,8.25
2022-09-26T05:08:15.025Z,8.26
2022-09-26T05:09:15.103Z,8.29
2022-09-26T05:10:15.120Z,8.29
2022-09-26T05:11:15.007Z,8.30
2022-09-26T05:12:14.979Z,8.33
2022-09-26T05:13:14.969Z,8.34
2022-09-26T05:14:14.958Z,8.36
2022-09-26T05:15:14.972Z,8.40
2022-09-26T05:16:14.998Z,8.38
2022-09-26T05:17:14.931Z,8.40
2022-09-26T05:18:14.919Z,8.41
2022-09-26T05:19:15.098Z,8.43
2022-09-26T05:20:14.927Z,8.41
2022-09-26T05:21:14.886Z,8.44
2022-09-26T05:22:14.883Z,8.44
2022-09-26T05:23:14.873Z,8.45
2022-09-26T05:24:14.858Z,8.47
2022-09-26T05:25:14.871Z,8.47
2022-09-26T05:26:14.865Z,8.48
2022-09-26T05:27:14.826Z,8.48
2022-09-26T05:28:14.827Z,8.52
2022-09-26T05:29:14.926Z,8.52
2022-09-26T05:30:14.817Z,8.55
2022-09-26T05:31:14.839Z,8.55
2022-09-26T05:32:14.777Z,8.55
2022-09-26T05:33:14.766Z,8.58
2022-09-26T05:34:19.457Z,8.59
2022-09-26T05:35:15.760Z,8.59
2022-09-26T05:36:14.766Z,8.61
2022-09-26T05:37:14.730Z,8.61
2022-09-26T05:38:14.723Z,8.61
2022-09-26T05:39:14.852Z,8.63
2022-09-26T05:40:14.775Z,8.63
2022-09-26T05:41:14.685Z,8.65
2022-09-26T05:42:14.699Z,8.65
2022-09-26T05:43:14.677Z,8.66
2022-09-26T05:44:14.658Z,8.68
2022-09-26T05:45:14.659Z,8.70
2022-09-26T05:46:14.740Z,8.68
2022-09-26T05:47:14.701Z,8.71
2022-09-26T05:48:14.738Z,8.74
2022-09-26T05:49:14.751Z,8.74
2022-09-26T05:50:14.622Z,8.77
2022-09-26T05:51:14.584Z,8.81
2022-09-26T05:52:14.578Z,8.81
2022-09-26T05:53:14.564Z,8.83
2022-09-26T05:54:14.555Z,8.86
2022-09-26T05:55:14.544Z,8.86
2022-09-26T05:56:18.557Z,8.89
2022-09-26T05:57:14.531Z,8.92
2022-09-26T05:58:14.534Z,8.92
2022-09-26T05:59:14.693Z,8.95
2022-09-26T06:00:14.491Z,8.98
2022-09-26T06:01:14.598Z,8.98
2022-09-26T06:02:18.621Z,8.99
2022-09-26T06:03:15.464Z,8.99
2022-09-26T06:04:14.456Z,9.02
2022-09-26T06:05:14.453Z,9.04
2022-09-26T06:06:14.455Z,9.05
2022-09-26T06:07:14.423Z,9.10
2022-09-26T06:08:14.412Z,9.14
2022-09-26T06:09:14.529Z,9.13
2022-09-26T06:10:14.393Z,9.15
2022-09-26T06:11:14.395Z,9.17
2022-09-26T06:12:14.374Z,9.18
2022-09-26T06:13:14.360Z,9.20
2022-09-26T06:14:14.372Z,9.21
2022-09-26T06:15:14.337Z,9.23
2022-09-26T06:16:14.445Z,9.24
2022-09-26T06:17:14.321Z,9.23
2022-09-26T06:18:14.310Z,9.21
2022-09-26T06:19:14.461Z,9.24
2022-09-26T06:20:14.290Z,9.26
2022-09-26T06:21:14.297Z,9.26
2022-09-26T06:22:14.368Z,9.29
2022-09-26T06:23:14.270Z,9.31
2022-09-26T06:24:14.248Z,9.33
2022-09-26T06:25:14.240Z,9.35
2022-09-26T06:26:14.247Z,9.33
2022-09-26T06:27:14.216Z,9.36
2022-09-26T06:28:14.214Z,9.35
2022-09-26T06:29:14.318Z,9.35
2022-09-26T06:30:14.209Z,9.35
2022-09-26T06:31:14.304Z,9.33
2022-09-26T06:32:14.226Z,9.33
2022-09-26T06:33:14.156Z,9.33
2022-09-26T06:34:14.145Z,9.32
2022-09-26T06:35:14.134Z,9.33
2022-09-26T06:36:14.143Z,9.31
2022-09-26T06:37:14.116Z,9.32
2022-09-26T06:38:14.106Z,9.32
2022-09-26T06:39:14.192Z,9.32
2022-09-26T06:40:14.148Z,9.32
2022-09-26T06:41:14.087Z,9.32
2022-09-26T06:42:14.063Z,9.32
2022-09-26T06:43:14.052Z,9.31
2022-09-26T06:44:14.049Z,9.29
2022-09-26T06:45:14.034Z,9.31
2022-09-26T06:46:14.057Z,9.31
2022-09-26T06:47:14.130Z,9.32
2022-09-26T06:48:14.008Z,9.32
2022-09-26T06:49:14.000Z,9.29
2022-09-26T06:50:13.979Z,9.29
2022-09-26T06:51:14.050Z,9.32
2022-09-26T06:52:13.963Z,9.32
2022-09-26T06:53:13.948Z,9.32
2022-09-26T06:54:13.945Z,9.33
2022-09-26T06:55:13.930Z,9.33
2022-09-26T06:56:13.932Z,9.35
2022-09-26T06:57:15.179Z,9.36
2022-09-26T06:58:13.901Z,9.39
2022-09-26T06:59:13.901Z,9.40
2022-09-26T07:00:13.879Z,9.40
2022-09-26T07:01:14.007Z,9.40
2022-09-26T07:02:14.013Z,9.40
2022-09-26T07:03:13.846Z,9.42
2022-09-26T07:04:13.835Z,9.43
2022-09-26T07:05:13.823Z,9.48
2022-09-26T07:06:13.837Z,9.48
2022-09-26T07:07:13.803Z,9.51
2022-09-26T07:08:13.793Z,9.53
2022-09-26T07:09:14.079Z,9.54
2022-09-26T07:10:13.777Z,9.58
2022-09-26T07:11:38.226Z,9.56
2022-09-26T07:12:15.745Z,9.58
2022-09-26T07:13:13.752Z,9.61
2022-09-26T07:14:13.733Z,9.66
2022-09-26T07:15:13.732Z,9.65
2022-09-26T07:16:13.803Z,9.69
2022-09-26T07:17:13.730Z,9.74
2022-09-26T07:18:13.707Z,9.76
2022-09-26T07:19:13.883Z,9.78
2022-09-26T07:20:13.668Z,9.83
2022-09-26T07:21:13.657Z,9.81
2022-09-26T07:22:13.658Z,9.84
2022-09-26T07:23:13.635Z,9.87
2022-09-26T07:24:13.629Z,9.90
2022-09-26T07:25:13.618Z,9.94
2022-09-26T07:26:13.608Z,9.96
2022-09-26T07:27:13.607Z,9.97
2022-09-26T07:28:13.583Z,10.01
2022-09-26T07:29:13.620Z,9.99
2022-09-26T07:30:13.565Z,10.04
2022-09-26T07:31:13.568Z,10.02
2022-09-26T07:32:13.556Z,10.07
2022-09-26T07:33:13.536Z,10.07
2022-09-26T07:34:18.060Z,10.05
2022-09-26T07:35:14.511Z,10.05
2022-09-26T07:36:13.504Z,10.05
2022-09-26T07:37:13.503Z,10.08
2022-09-26T07:38:13.485Z,10.09
2022-09-26T07:39:13.473Z,10.09
2022-09-26T07:40:13.506Z,10.12
2022-09-26T07:41:13.448Z,10.12
2022-09-26T07:42:13.453Z,10.15
2022-09-26T07:43:20.074Z,10.15
2022-09-26T07:45:28.047Z,10.17
2022-09-26T07:46:14.467Z,10.17
2022-09-26T07:47:13.465Z,10.17
2022-09-26T07:48:13.382Z,10.15
2022-09-26T07:49:13.367Z,10.12
2022-09-26T07:50:13.402Z,10.14
2022-09-26T07:51:13.363Z,10.12
2022-09-26T07:52:13.336Z,10.11
2022-09-26T07:53:13.462Z,10.14
2022-09-26T07:54:13.343Z,10.17
2022-09-26T07:55:13.302Z,10.18
2022-09-26T07:56:13.319Z,10.20
2022-09-26T07:57:13.289Z,10.22
2022-09-26T07:58:13.277Z,10.23
2022-09-26T07:59:13.267Z,10.26
2022-09-26T08:00:13.253Z,10.26
2022-09-26T08:01:13.241Z,10.30
2022-09-26T08:02:13.363Z,10.34
2022-09-26T08:03:13.285Z,10.36
2022-09-26T08:04:13.238Z,10.40
2022-09-26T08:05:13.201Z,10.42
2022-09-26T08:06:13.344Z,10.42
2022-09-26T08:07:13.207Z,10.48
2022-09-26T08:08:13.169Z,10.52
2022-09-26T08:09:13.159Z,10.51
2022-09-26T08:10:13.149Z,10.55
2022-09-26T08:11:13.138Z,10.55
2022-09-26T08:12:13.139Z,10.64
2022-09-26T08:13:13.116Z,10.64
2022-09-26T08:14:13.144Z,10.70
2022-09-26T08:15:13.098Z,10.81
2022-09-26T08:16:13.171Z,10.86
2022-09-26T08:17:14.439Z,10.94
2022-09-26T08:18:13.186Z,10.91
2022-09-26T08:19:13.056Z,10.99
2022-09-26T08:20:13.044Z,11.00
2022-09-26T08:21:13.044Z,11.04
2022-09-26T08:22:13.058Z,11.10
2022-09-26T08:23:13.015Z,11.18
2022-09-26T08:24:13.104Z,11.24
2022-09-26T08:25:12.992Z,11.28
2022-09-26T08:26:12.981Z,11.29
2022-09-26T08:27:12.987Z,11.35
2022-09-26T08:28:12.965Z,11.40
2022-09-26T08:29:12.955Z,11.42
2022-09-26T08:30:12.940Z,11.46
2022-09-26T08:31:13.009Z,11.49
2022-09-26T08:32:12.940Z,11.51
2022-09-26T08:33:12.911Z,11.55
2022-09-26T08:34:13.068Z,11.61
2022-09-26T08:35:12.889Z,11.67
2022-09-26T08:36:12.888Z,11.67
2022-09-26T08:37:12.881Z,11.65
2022-09-26T08:38:12.905Z,11.72
2022-09-26T08:39:13.056Z,11.76
2022-09-26T08:40:12.915Z,11.80
2022-09-26T08:41:12.837Z,11.80
2022-09-26T08:42:12.844Z,11.78
2022-09-26T08:43:12.815Z,11.75
2022-09-26T08:44:12.930Z,11.73
2022-09-26T08:45:12.824Z,11.70
2022-09-26T08:46:12.891Z,11.72
2022-09-26T08:47:12.778Z,11.70
2022-09-26T08:48:12.760Z,11.62
2022-09-26T08:49:12.746Z,11.55
2022-09-26T08:50:12.730Z,11.46
2022-09-26T08:51:12.724Z,11.39
2022-09-26T08:52:12.725Z,11.29
2022-09-26T08:53:12.707Z,11.24
2022-09-26T08:54:12.804Z,11.17
2022-09-26T08:55:12.684Z,11.14
2022-09-26T08:56:12.670Z,11.14
2022-09-26T08:57:12.682Z,11.03
2022-09-26T08:58:12.654Z,11.02
2022-09-26T08:59:12.645Z,10.97
2022-09-26T09:00:12.630Z,10.96
2022-09-26T09:01:12.658Z,10.94
2022-09-26T09:02:12.927Z,10.86
2022-09-26T09:03:12.735Z,10.86
2022-09-26T09:04:12.670Z,10.85
2022-09-26T09:05:12.584Z,10.85
2022-09-26T09:06:13.338Z,10.85
2022-09-26T09:07:12.575Z,10.85
2022-09-26T09:08:12.547Z,10.85
2022-09-26T09:09:12.537Z,10.82
2022-09-26T09:10:12.557Z,10.81
2022-09-26T09:11:12.518Z,10.78
2022-09-26T09:12:12.522Z,10.74
2022-09-26T09:13:12.499Z,10.76
2022-09-26T09:14:12.593Z,10.76
2022-09-26T09:15:25.081Z,10.73
2022-09-26T09:16:13.546Z,10.73
2022-09-26T09:17:12.467Z,10.73
2022-09-26T09:18:13.820Z,10.73
2022-09-26T09:19:12.445Z,10.71
2022-09-26T09:20:12.425Z,10.71
2022-09-26T09:21:12.411Z,10.74
2022-09-26T09:22:12.423Z,10.78
2022-09-26T09:23:12.393Z,10.74
2022-09-26T09:24:12.521Z,10.70
2022-09-26T09:25:12.371Z,10.70
2022-09-26T09:28:13.336Z,10.66
2022-09-26T09:29:12.639Z,10.70
2022-09-26T09:30:18.786Z,10.70
2022-09-26T09:31:13.382Z,10.71
2022-09-26T09:32:12.302Z,10.71
2022-09-26T09:33:12.301Z,10.74
2022-09-26T09:34:12.335Z,10.76
2022-09-26T09:35:12.270Z,10.71
2022-09-26T09:36:12.258Z,10.71
2022-09-26T09:37:12.265Z,10.71
2022-09-26T09:38:12.238Z,10.78
2022-09-26T09:39:12.234Z,10.78
2022-09-26T09:40:12.303Z,10.79
2022-09-26T09:41:12.206Z,10.79
2022-09-26T09:42:12.231Z,10.79
2022-09-26T09:43:12.185Z,10.78
2022-09-26T09:44:12.255Z,10.76
2022-09-26T09:45:12.184Z,10.79
2022-09-26T09:46:12.199Z,10.81
2022-09-26T09:47:12.155Z,10.85
2022-09-26T09:48:12.132Z,10.88
2022-09-26T09:49:12.123Z,10.89
2022-09-26T09:50:12.112Z,10.92
2022-09-26T09:51:12.105Z,10.94
2022-09-26T09:52:12.107Z,10.97
2022-09-26T09:53:12.079Z,11.00
2022-09-26T09:54:12.122Z,10.96
2022-09-26T09:55:12.063Z,10.96
2022-09-26T09:56:12.049Z,10.97
2022-09-26T09:57:12.055Z,10.99
2022-09-26T09:58:12.070Z,10.96
2022-09-26T09:59:12.057Z,10.97
2022-09-26T10:00:12.010Z,10.96
2022-09-26T10:01:11.999Z,10.94
2022-09-26T10:02:11.997Z,10.92
2022-09-26T10:03:12.056Z,10.92
2022-09-26T10:04:12.043Z,10.94
2022-09-26T10:05:11.967Z,10.94
2022-09-26T10:06:43.957Z,10.94
2022-09-26T10:07:12.963Z,10.94
2022-09-26T10:08:11.924Z,10.92
2022-09-26T10:09:39.658Z,10.94
2022-09-26T10:10:12.899Z,10.89
2022-09-26T10:11:11.906Z,10.85
2022-09-26T10:12:11.879Z,10.84
2022-09-26T10:13:11.876Z,10.81
2022-09-26T10:14:11.923Z,10.81
2022-09-26T10:15:11.852Z,10.79
2022-09-26T10:16:11.934Z,10.76
2022-09-26T10:17:11.833Z,10.78
2022-09-26T10:18:27.053Z,10.78
2022-09-26T10:19:12.817Z,10.79
2022-09-26T10:20:11.804Z,10.81
2022-09-26T10:21:11.812Z,10.82
2022-09-26T10:22:11.777Z,10.84
2022-09-26T10:23:11.783Z,10.85
2022-09-26T10:24:11.829Z,10.88
2022-09-26T10:25:11.749Z,10.86
2022-09-26T10:26:11.758Z,10.88
2022-09-26T10:27:11.730Z,10.92
2022-09-26T10:28:11.715Z,10.91
2022-09-26T10:29:11.708Z,10.91
2022-09-26T10:30:11.719Z,10.92
2022-09-26T10:31:11.790Z,10.96
2022-09-26T10:32:11.757Z,11.00
2022-09-26T10:33:11.661Z,11.02
2022-09-26T10:34:11.720Z,11.04
2022-09-26T10:35:13.357Z,11.04
2022-09-26T10:36:11.651Z,11.06
2022-09-26T10:37:11.651Z,11.04
2022-09-26T10:38:11.612Z,11.06
2022-09-26T10:39:11.608Z,11.06
2022-09-26T10:40:11.727Z,11.07
2022-09-26T10:41:11.586Z,11.09
2022-09-26T10:42:11.654Z,11.07
2022-09-26T10:43:11.562Z,11.06
2022-09-26T10:44:11.558Z,11.06
2022-09-26T10:45:11.547Z,11.06
2022-09-26T10:46:11.620Z,11.02
2022-09-26T10:47:11.531Z,10.97
2022-09-26T10:48:12.381Z,10.96
2022-09-26T10:49:11.509Z,10.96
2022-09-26T10:50:11.495Z,10.96
2022-09-26T10:51:11.516Z,11.00
2022-09-26T10:52:16.012Z,11.04
2022-09-26T10:53:12.458Z,11.09
2022-09-26T10:54:11.464Z,11.14
2022-09-26T10:55:11.464Z,11.18
2022-09-26T10:56:11.447Z,11.18
2022-09-26T10:57:11.443Z,11.17
2022-09-26T10:58:13.898Z,11.18
2022-09-26T10:59:11.397Z,11.18
2022-09-26T11:00:11.387Z,11.18
2022-09-26T11:01:11.562Z,11.21
2022-09-26T11:02:11.466Z,11.24
2022-09-26T11:03:11.378Z,11.27
2022-09-26T11:04:11.591Z,11.32
2022-09-26T11:05:11.335Z,11.28
2022-09-26T11:06:11.318Z,11.32
2022-09-26T11:07:11.330Z,11.27
2022-09-26T11:08:11.298Z,11.25
2022-09-26T11:09:11.293Z,11.28
2022-09-26T11:10:11.282Z,11.29
2022-09-26T11:11:11.275Z,11.36
2022-09-26T11:12:11.274Z,11.40
2022-09-26T11:13:11.249Z,11.43
2022-09-26T11:14:11.237Z,11.42
2022-09-26T11:15:11.232Z,11.43
2022-09-26T11:16:11.282Z,11.43
2022-09-26T11:17:11.221Z,11.46
2022-09-26T11:18:11.216Z,11.46
2022-09-26T11:19:11.924Z,11.47
2022-09-26T11:20:11.173Z,11.42
2022-09-26T11:21:27.519Z,11.40
2022-09-26T11:22:12.167Z,11.40
2022-09-26T11:23:11.144Z,11.37
2022-09-26T11:24:11.134Z,11.37
2022-09-26T11:25:11.126Z,11.40
2022-09-26T11:26:11.117Z,11.40
2022-09-26T11:27:11.138Z,11.39
2022-09-26T11:28:11.095Z,11.39
2022-09-26T11:29:11.109Z,11.37
2022-09-26T11:30:11.083Z,11.37
2022-09-26T11:31:11.096Z,11.39
2022-09-26T11:32:11.090Z,11.39
2022-09-26T11:33:11.048Z,11.36
2022-09-26T11:34:11.183Z,11.37
2022-09-26T11:35:11.022Z,11.37
2022-09-26T11:36:11.019Z,11.40
2022-09-26T11:37:11.015Z,11.40
2022-09-26T11:38:10.999Z,11.40
2022-09-26T11:39:10.983Z,11.43
2022-09-26T11:40:10.970Z,11.44
2022-09-26T11:41:10.961Z,11.46
2022-09-26T11:42:10.965Z,11.43
2022-09-26T11:43:10.939Z,11.44
2022-09-26T11:44:10.937Z,11.44
2022-09-26T11:45:10.922Z,11.43
2022-09-26T11:46:11.036Z,11.43
2022-09-26T11:47:10.912Z,11.43
2022-09-26T11:48:10.889Z,11.39
2022-09-26T11:49:10.882Z,11.39
2022-09-26T11:50:10.953Z,11.39
2022-09-26T11:51:10.859Z,11.40
2022-09-26T11:52:10.858Z,11.37
2022-09-26T11:53:10.836Z,11.33
2022-09-26T11:54:10.826Z,11.29
2022-09-26T11:55:10.816Z,11.28
2022-09-26T11:56:10.803Z,11.28
2022-09-26T11:57:10.808Z,11.27
2022-09-26T11:58:10.784Z,11.28
2022-09-26T11:59:10.779Z,11.29
2022-09-26T12:00:10.759Z,11.32
2022-09-26T12:01:10.758Z,11.29
2022-09-26T12:02:10.768Z,11.32
2022-09-26T12:03:10.835Z,11.32
2022-09-26T12:04:10.864Z,11.25
2022-09-26T12:05:10.711Z,11.27
2022-09-26T12:06:10.725Z,11.28
2022-09-26T12:07:10.690Z,11.25
2022-09-26T12:08:10.710Z,11.25
2022-09-26T12:09:10.673Z,11.27
2022-09-26T12:10:10.793Z,11.25
2022-09-26T12:11:10.681Z,11.27
2022-09-26T12:12:10.635Z,11.27
2022-09-26T12:13:10.650Z,11.27
2022-09-26T12:14:10.617Z,11.19
2022-09-26T12:15:10.610Z,11.18
2022-09-26T12:16:10.683Z,11.19
2022-09-26T12:17:10.587Z,11.21
2022-09-26T12:18:10.645Z,11.22
2022-09-26T12:19:16.131Z,11.22
2022-09-26T12:20:11.552Z,11.24
2022-09-26T12:21:10.552Z,11.22
2022-09-26T12:22:10.562Z,11.21
2022-09-26T12:23:10.537Z,11.24
2022-09-26T12:24:10.514Z,11.24
2022-09-26T12:25:10.502Z,11.22
2022-09-26T12:26:10.494Z,11.21
2022-09-26T12:27:10.486Z,11.17
2022-09-26T12:28:10.491Z,11.19
2022-09-26T12:29:10.461Z,11.15
2022-09-26T12:30:10.456Z,11.17
2022-09-26T12:31:10.466Z,11.18
2022-09-26T12:32:10.506Z,11.19
2022-09-26T12:33:10.434Z,11.24
2022-09-26T12:34:10.409Z,11.24
2022-09-26T12:35:10.399Z,11.25
2022-09-26T12:36:10.405Z,11.24
2022-09-26T12:37:10.379Z,11.22
2022-09-26T12:38:10.422Z,11.24
2022-09-26T12:39:10.363Z,11.27
2022-09-26T12:40:10.414Z,11.29
2022-09-26T12:41:10.334Z,11.32
2022-09-26T12:42:10.330Z,11.35
2022-09-26T12:43:11.121Z,11.36
2022-09-26T12:44:10.380Z,11.37
2022-09-26T12:45:10.295Z,11.40
2022-09-26T12:46:10.332Z,11.46
2022-09-26T12:47:10.285Z,11.49
2022-09-26T12:48:10.300Z,11.54
2022-09-26T12:49:10.338Z,11.52
2022-09-26T12:50:10.328Z,11.57
2022-09-26T12:51:10.234Z,11.61
2022-09-26T12:52:10.225Z,11.64
2022-09-26T12:53:10.230Z,11.69
2022-09-26T12:54:10.224Z,11.76
2022-09-26T12:55:10.190Z,11.82
2022-09-26T12:56:10.253Z,11.88
2022-09-26T12:57:10.172Z,11.95
2022-09-26T12:58:10.175Z,12.01
2022-09-26T12:59:10.148Z,12.07
2022-09-26T13:00:10.138Z,12.07
2022-09-26T13:01:10.232Z,12.09
2022-09-26T13:02:10.228Z,12.13
2022-09-26T13:03:10.230Z,12.14
2022-09-26T13:04:10.103Z,12.12
2022-09-26T13:05:10.086Z,12.13
2022-09-26T13:06:10.082Z,12.17
2022-09-26T13:07:21.788Z,12.23
2022-09-26T13:08:11.072Z,12.28
2022-09-26T13:09:10.047Z,12.29
2022-09-26T13:10:10.071Z,12.35